Time;durP1;ratioP1;P1;durP2;ratioP2;P2;SDS_P1;SDS_P2;PMS_P1;PMS_P2;Temp;Humidity;BMP_temperature;BMP_pressure;BME280_temperature;BME280_humidity;BME280_pressure;Samples;Min_cycle;Max_cycle;Signal;HPM_P1;HPM_P2
2021/01/02 00:00:16;;;;;;;4.50;3.60;;;21.80;51.40;;;;;;5094748;28;20169;-69
2021/01/02 00:02:50;;;;;;;5.70;3.50;;;21.80;51.40;;;;;;5094975;28;20223;-67
2021/01/02 00:05:19;;;;;;;4.17;3.43;;;21.80;51.40;;;;;;5094715;28;20733;-67
2021/01/02 00:07:58;;;;;;;4.07;3.50;;;21.80;51.50;;;;;;5094748;28;20470;-68
2021/01/02 00:10:27;;;;;;;4.87;3.50;;;21.80;51.40;;;;;;5094812;28;20384;-67
2021/01/02 00:13:20;;;;;;;5.10;3.63;;;21.80;51.50;;;;;;5095285;28;20748;-68
2021/01/02 00:16:09;;;;;;;4.93;3.87;;;21.80;52.00;;;;;;5093657;28;20886;-68
2021/01/02 00:19:16;;;;;;;8.77;4.37;;;21.80;51.50;;;;;;5094346;28;20419;-67
2021/01/02 00:22:00;;;;;;;6.40;3.63;;;21.80;51.50;;;;;;5094333;28;20414;-67
2021/01/02 00:24:35;;;;;;;4.90;3.50;;;21.70;51.50;;;;;;5094295;28;20423;-67
2021/01/02 00:27:10;;;;;;;7.60;3.47;;;21.70;51.50;;;;;;5094488;28;20439;-67
2021/01/02 00:29:55;;;;;;;4.50;4.03;;;21.70;51.50;;;;;;5094105;28;20409;-67
2021/01/02 00:32:45;;;;;;;4.53;3.50;;;21.70;51.50;;;;;;5094378;28;20429;-67
2021/01/02 00:35:18;;;;;;;5.37;3.50;;;21.70;51.40;;;;;;5094141;28;20388;-68
2021/01/02 00:37:49;;;;;;;4.60;3.53;;;21.70;51.50;;;;;;5094176;28;20446;-68
2021/01/02 00:40:18;;;;;;;4.70;3.20;;;21.70;51.50;;;;;;5094254;28;20420;-68
2021/01/02 00:42:45;;;;;;;5.07;3.43;;;21.70;51.50;;;;;;5094164;28;20499;-67
2021/01/02 00:45:23;;;;;;;4.87;3.50;;;21.70;51.50;;;;;;5093864;28;20411;-67
2021/01/02 00:47:50;;;;;;;5.83;3.73;;;21.70;51.50;;;;;;5093901;28;20766;-67
2021/01/02 00:50:17;;;;;;;4.43;3.50;;;21.70;52.00;;;;;;5094105;28;20479;-67
2021/01/02 00:52:43;;;;;;;5.43;3.70;;;21.70;51.50;;;;;;5093741;28;20414;-67
2021/01/02 00:55:39;;;;;;;4.70;3.10;;;21.70;51.50;;;;;;5094230;28;20773;-67
2021/01/02 00:58:19;;;;;;;3.80;2.83;;;21.70;51.50;;;;;;5093800;28;20197;-67
2021/01/02 01:01:00;;;;;;;4.97;3.33;;;21.70;51.60;;;;;;5093859;28;20388;-67
2021/01/02 01:03:58;;;;;;;3.27;2.97;;;21.60;51.40;;;;;;5093607;28;20388;-68
2021/01/02 01:06:28;;;;;;;4.73;3.13;;;21.70;51.50;;;;;;5093960;28;20439;-67
2021/01/02 01:08:59;;;;;;;3.30;3.00;;;21.60;51.40;;;;;;5094032;28;20434;-67
2021/01/02 01:11:34;;;;;;;4.13;3.10;;;21.60;51.50;;;;;;5093775;28;20418;-67
2021/01/02 01:14:01;;;;;;;6.23;3.57;;;21.60;51.40;;;;;;5093433;28;20413;-67
2021/01/02 01:16:33;;;;;;;4.43;3.33;;;21.60;51.40;;;;;;5094065;28;20420;-67
2021/01/02 01:19:03;;;;;;;4.70;3.00;;;21.60;51.40;;;;;;5093626;28;20388;-67
2021/01/02 01:21:33;;;;;;;4.77;3.67;;;21.60;51.40;;;;;;5093280;28;20414;-67
2021/01/02 01:24:14;;;;;;;3.57;2.80;;;21.60;51.40;;;;;;5093438;28;20392;-67
2021/01/02 01:26:59;;;;;;;5.93;3.23;;;21.60;51.40;;;;;;5093743;28;20510;-67
2021/01/02 01:29:40;;;;;;;3.90;2.93;;;21.60;51.50;;;;;;5093516;28;20453;-68
2021/01/02 01:32:07;;;;;;;6.63;3.80;;;21.60;51.50;;;;;;5093689;28;20384;-67
2021/01/02 01:34:34;;;;;;;5.07;3.37;;;21.60;51.50;;;;;;5093186;28;20408;-67
2021/01/02 01:37:07;;;;;;;4.40;3.20;;;21.60;51.50;;;;;;5093305;28;20815;-67
2021/01/02 01:39:36;;;;;;;3.50;3.20;;;21.60;52.10;;;;;;5093439;28;20855;-67
2021/01/02 01:42:06;;;;;;;4.40;3.00;;;21.60;52.10;;;;;;5093379;28;20422;-67
2021/01/02 01:44:44;;;;;;;5.17;3.73;;;21.60;51.50;;;;;;5098738;28;20414;-67
2021/01/02 01:47:14;;;;;;;4.47;3.30;;;21.60;51.50;;;;;;5099991;28;20419;-67
2021/01/02 01:50:14;;;;;;;3.70;3.10;;;21.60;51.50;;;;;;5099998;28;20492;-68
2021/01/02 01:52:51;;;;;;;5.07;3.40;;;21.60;51.50;;;;;;5099749;28;20831;-67
2021/01/02 01:55:31;;;;;;;4.33;3.20;;;21.60;51.50;;;;;;5100015;28;20769;-68
2021/01/02 01:58:11;;;;;;;7.13;3.57;;;21.60;51.50;;;;;;5099590;28;20454;-67
2021/01/02 02:00:45;;;;;;;5.27;3.50;;;21.60;51.50;;;;;;5099684;28;20384;-68
2021/01/02 02:03:21;;;;;;;4.70;3.10;;;21.60;51.60;;;;;;5099929;28;20391;-67
2021/01/02 02:05:53;;;;;;;4.57;3.30;;;21.60;51.50;;;;;;5099644;28;20756;-67
2021/01/02 02:08:40;;;;;;;3.73;2.80;;;21.60;51.60;;;;;;5099383;28;20526;-67
2021/01/02 02:11:06;;;;;;;4.30;3.03;;;21.60;51.60;;;;;;5099875;28;20388;-67
2021/01/02 02:13:39;;;;;;;5.40;3.80;;;21.60;51.60;;;;;;5099587;28;20556;-67
2021/01/02 02:16:10;;;;;;;3.10;2.80;;;21.60;51.60;;;;;;5099515;28;20403;-67
2021/01/02 02:18:42;;;;;;;3.37;2.63;;;21.60;51.60;;;;;;5099206;28;20851;-67
2021/01/02 02:21:11;;;;;;;3.70;2.90;;;21.60;51.60;;;;;;5099820;28;20944;-67
2021/01/02 02:23:57;;;;;;;4.70;3.40;;;21.50;51.50;;;;;;5099708;28;21001;-67
2021/01/02 02:26:36;;;;;;;5.40;3.10;;;21.60;51.50;;;;;;5099648;28;20538;-67
2021/01/02 02:29:24;;;;;;;4.07;3.13;;;21.60;51.60;;;;;;5099609;28;20410;-67
2021/01/02 02:31:55;;;;;;;3.23;2.70;;;21.60;51.50;;;;;;5099673;28;20788;-67
2021/01/02 02:34:23;;;;;;;4.20;3.80;;;21.60;51.60;;;;;;5098049;28;20475;-66
2021/01/02 02:36:48;;;;;;;3.57;3.00;;;21.60;51.60;;;;;;5099421;28;20454;-67
2021/01/02 02:39:15;;;;;;;4.80;3.50;;;21.60;51.60;;;;;;5099274;28;20777;-67
2021/01/02 02:41:51;;;;;;;5.50;2.93;;;21.60;51.60;;;;;;5099216;28;20174;-67
2021/01/02 02:44:21;;;;;;;3.77;2.80;;;21.60;51.60;;;;;;5099488;28;20392;-68
2021/01/02 02:46:47;;;;;;;3.20;2.37;;;21.50;51.50;;;;;;5099126;28;20431;-68
2021/01/02 02:49:18;;;;;;;7.57;3.13;;;21.60;51.60;;;;;;5099233;28;20406;-67
2021/01/02 02:51:58;;;;;;;4.33;3.43;;;21.50;52.00;;;;;;5099240;28;20405;-67
2021/01/02 02:54:24;;;;;;;4.33;3.30;;;21.60;51.60;;;;;;5097736;28;20456;-68
2021/01/02 02:56:50;;;;;;;3.40;2.37;;;21.50;51.50;;;;;;5095625;28;20446;-67
2021/01/02 02:59:16;;;;;;;6.20;3.00;;;21.60;52.20;;;;;;5095926;28;20172;-67
2021/01/02 03:01:47;;;;;;;3.43;2.83;;;21.50;51.50;;;;;;5095932;28;20495;-67
2021/01/02 03:04:12;;;;;;;4.53;3.40;;;21.50;51.50;;;;;;5095846;28;20154;-67
2021/01/02 03:06:39;;;;;;;3.73;3.33;;;21.60;51.60;;;;;;5095714;28;20437;-67
2021/01/02 03:09:05;;;;;;;4.53;3.00;;;21.50;51.60;;;;;;5095837;28;20617;-67
2021/01/02 03:11:33;;;;;;;4.57;2.80;;;21.60;51.60;;;;;;5095694;28;20403;-67
2021/01/02 03:13:59;;;;;;;3.70;3.30;;;21.60;51.60;;;;;;5095688;28;20419;-67
2021/01/02 03:16:24;;;;;;;3.80;2.67;;;21.60;51.60;;;;;;5095454;28;20784;-67
2021/01/02 03:18:50;;;;;;;4.43;2.93;;;21.50;51.60;;;;;;5095644;28;20197;-67
2021/01/02 03:21:16;;;;;;;3.63;2.63;;;21.50;51.60;;;;;;5095785;28;20647;-67
2021/01/02 03:23:47;;;;;;;3.97;3.00;;;21.50;51.60;;;;;;5095452;28;20586;-67
2021/01/02 03:26:13;;;;;;;3.97;2.60;;;21.50;51.60;;;;;;5093981;28;20182;-67
2021/01/02 03:28:40;;;;;;;5.57;2.90;;;21.50;51.60;;;;;;5095166;28;20910;-67
2021/01/02 03:31:05;;;;;;;4.33;2.80;;;21.50;51.50;;;;;;5095567;28;20423;-67
2021/01/02 03:33:31;;;;;;;4.67;3.13;;;21.50;51.50;;;;;;5095325;28;20866;-67
2021/01/02 03:36:01;;;;;;;3.70;2.70;;;21.50;51.60;;;;;;5095474;28;20184;-67
2021/01/02 03:38:33;;;;;;;4.30;2.83;;;21.50;51.60;;;;;;5095357;28;20209;-67
2021/01/02 03:40:59;;;;;;;2.70;2.37;;;21.50;51.60;;;;;;5095416;28;20388;-67
2021/01/02 03:43:24;;;;;;;3.47;2.60;;;21.50;51.60;;;;;;5095177;28;20400;-67
2021/01/02 03:45:51;;;;;;;3.87;2.90;;;21.50;51.60;;;;;;5095134;28;20411;-67
2021/01/02 03:48:16;;;;;;;3.77;3.33;;;21.50;51.60;;;;;;5095193;28;20250;-68
2021/01/02 03:50:42;;;;;;;3.53;2.43;;;21.50;51.60;;;;;;5094933;28;20906;-68
2021/01/02 03:53:08;;;;;;;2.83;2.60;;;21.50;51.60;;;;;;5095173;28;20169;-68
2021/01/02 03:55:34;;;;;;;3.87;2.63;;;21.50;51.60;;;;;;5094587;28;20202;-67
2021/01/02 03:57:59;;;;;;;3.27;2.43;;;21.40;51.60;;;;;;5094772;28;20683;-67
2021/01/02 04:00:26;;;;;;;4.13;2.63;;;21.50;51.60;;;;;;5094701;28;20415;-67
2021/01/02 04:02:51;;;;;;;4.10;2.80;;;21.50;51.60;;;;;;5094938;28;20197;-67
2021/01/02 04:05:17;;;;;;;3.60;2.90;;;21.50;51.60;;;;;;5094631;28;20427;-67
2021/01/02 04:07:42;;;;;;;4.13;3.37;;;21.50;51.60;;;;;;5094270;28;20703;-67
2021/01/02 04:10:08;;;;;;;2.87;2.57;;;21.50;51.60;;;;;;5094610;28;20181;-68
2021/01/02 04:12:34;;;;;;;3.07;2.67;;;21.50;51.60;;;;;;5094483;28;20682;-67
2021/01/02 04:14:59;;;;;;;3.47;3.10;;;21.50;51.60;;;;;;5093182;28;20709;-67
2021/01/02 04:17:25;;;;;;;3.03;2.60;;;21.40;51.60;;;;;;5094312;28;20198;-67
2021/01/02 04:19:51;;;;;;;2.40;2.20;;;21.50;51.60;;;;;;5094386;28;20240;-67
2021/01/02 04:22:16;;;;;;;2.63;2.43;;;21.50;51.60;;;;;;5094371;28;20165;-68
2021/01/02 04:24:42;;;;;;;3.70;2.73;;;21.50;51.60;;;;;;5094368;28;20228;-68
2021/01/02 04:27:08;;;;;;;3.67;2.40;;;21.50;51.60;;;;;;5094418;28;20190;-67
2021/01/02 04:29:33;;;;;;;3.00;2.70;;;21.50;51.70;;;;;;5094212;28;20173;-67
2021/01/02 04:32:00;;;;;;;4.70;3.10;;;21.50;51.60;;;;;;5094460;28;20165;-67
2021/01/02 04:34:27;;;;;;;3.07;2.50;;;21.50;51.60;;;;;;5094126;28;20184;-67
2021/01/02 04:36:53;;;;;;;2.77;2.50;;;21.40;51.60;;;;;;5093838;28;20448;-68
2021/01/02 04:39:19;;;;;;;3.70;2.70;;;21.50;51.70;;;;;;5094073;28;20415;-67
2021/01/02 04:41:44;;;;;;;3.27;2.73;;;21.50;51.60;;;;;;5093949;28;20396;-67
2021/01/02 04:44:11;;;;;;;2.93;2.63;;;21.40;51.60;;;;;;5093925;28;20399;-67
2021/01/02 04:46:38;;;;;;;3.07;2.43;;;21.40;51.60;;;;;;5094093;28;20215;-67
2021/01/02 04:49:07;;;;;;;3.10;2.17;;;21.40;51.50;;;;;;5093835;28;20483;-67
2021/01/02 04:51:33;;;;;;;2.63;2.43;;;21.50;51.60;;;;;;5093809;28;20408;-67
2021/01/02 04:54:03;;;;;;;3.47;2.37;;;21.40;51.60;;;;;;5094032;28;20400;-67
2021/01/02 04:56:34;;;;;;;3.53;2.70;;;21.50;51.60;;;;;;5093604;28;20679;-67
2021/01/02 04:59:09;;;;;;;3.30;2.70;;;21.50;51.60;;;;;;5093649;28;20400;-67
2021/01/02 05:01:37;;;;;;;3.33;2.40;;;21.40;51.60;;;;;;5093891;28;20399;-67
2021/01/02 05:04:03;;;;;;;4.00;3.20;;;21.50;51.70;;;;;;5093867;28;20496;-67
2021/01/02 05:06:28;;;;;;;3.53;2.40;;;21.40;51.60;;;;;;5093522;28;20438;-67
2021/01/02 05:08:54;;;;;;;3.33;2.40;;;21.40;51.60;;;;;;5093570;28;20162;-67
2021/01/02 05:11:20;;;;;;;3.00;2.50;;;21.40;51.60;;;;;;5093516;28;20700;-67
2021/01/02 05:13:46;;;;;;;3.60;2.37;;;21.40;51.60;;;;;;5093383;28;20188;-68
2021/01/02 05:16:35;;;;;;;2.50;2.20;;;21.40;51.60;;;;;;5093332;28;20478;-67
2021/01/02 05:19:04;;;;;;;3.17;2.70;;;21.40;51.60;;;;;;5092693;28;20399;-67
2021/01/02 05:21:32;;;;;;;2.40;2.20;;;21.40;51.60;;;;;;5093647;28;20471;-67
2021/01/02 05:24:06;;;;;;;3.20;2.43;;;21.40;51.60;;;;;;5093351;28;20485;-68
2021/01/02 05:26:33;;;;;;;3.53;2.57;;;21.40;51.60;;;;;;5093417;28;20423;-67
2021/01/02 05:29:26;;;;;;;2.73;2.23;;;21.40;51.70;;;;;;5093243;28;20407;-68
2021/01/02 05:31:56;;;;;;;3.00;2.50;;;21.40;51.60;;;;;;5090713;28;20507;-67
2021/01/02 05:34:27;;;;;;;3.20;2.60;;;21.40;51.70;;;;;;5093201;28;20384;-67
2021/01/02 05:37:00;;;;;;;2.30;1.97;;;21.40;51.70;;;;;;5093006;28;20471;-67
2021/01/02 05:39:49;;;;;;;2.83;2.43;;;21.40;51.70;;;;;;5093097;28;20437;-67
2021/01/02 05:42:15;;;;;;;2.53;2.30;;;21.50;51.80;;;;;;5093891;28;20396;-68
2021/01/02 05:44:41;;;;;;;2.50;2.30;;;21.40;51.70;;;;;;5093398;28;20396;-67
2021/01/02 05:47:11;;;;;;;2.77;2.47;;;21.40;51.80;;;;;;5092970;28;20201;-67
2021/01/02 05:49:39;;;;;;;3.70;1.87;;;21.50;51.80;;;;;;5093019;28;20404;-67
2021/01/02 05:52:10;;;;;;;3.10;2.50;;;21.50;51.80;;;;;;5092998;28;20408;-67
2021/01/02 05:54:46;;;;;;;3.00;2.70;;;21.50;52.40;;;;;;5093277;28;20388;-67
2021/01/02 05:57:12;;;;;;;2.57;2.37;;;21.50;51.90;;;;;;5092935;28;20447;-67
2021/01/02 05:59:39;;;;;;;3.37;2.23;;;21.50;51.90;;;;;;5092934;28;20464;-67
2021/01/02 06:02:37;;;;;;;2.43;2.20;;;21.50;51.90;;;;;;5098872;22;20490;-67
2021/01/02 06:05:04;;;;;;;2.60;2.03;;;21.50;51.80;;;;;;5059217;28;20419;-67
2021/01/02 06:07:32;;;;;;;2.70;2.33;;;21.40;51.80;;;;;;5092819;28;20428;-67
2021/01/02 06:09:58;;;;;;;2.60;2.10;;;21.50;51.90;;;;;;5093066;28;20780;-67
2021/01/02 06:12:31;;;;;;;2.57;2.03;;;21.50;51.90;;;;;;5093046;28;20415;-67
2021/01/02 06:14:59;;;;;;;3.43;2.40;;;21.50;51.90;;;;;;5093284;28;20407;-67
2021/01/02 06:17:28;;;;;;;4.90;2.17;;;21.50;51.80;;;;;;5092519;28;20500;-67
2021/01/02 06:19:54;;;;;;;2.07;1.87;;;21.50;51.80;;;;;;5090996;28;20447;-67
2021/01/02 06:22:20;;;;;;;2.93;2.27;;;21.60;51.90;;;;;;5092998;28;20865;-67
2021/01/02 06:24:49;;;;;;;2.90;2.40;;;21.50;51.80;;;;;;5092723;28;20408;-67
2021/01/02 06:27:15;;;;;;;2.97;2.67;;;21.60;51.90;;;;;;5092389;28;20285;-67
2021/01/02 06:29:41;;;;;;;2.50;2.27;;;21.50;51.80;;;;;;5094063;28;20792;-67
2021/01/02 06:32:07;;;;;;;3.23;2.30;;;21.60;51.90;;;;;;5096488;28;20415;-67
2021/01/02 06:34:32;;;;;;;2.93;2.60;;;21.50;51.70;;;;;;5096366;28;20185;-67
2021/01/02 06:36:58;;;;;;;2.47;2.23;;;21.60;51.80;;;;;;5096294;28;20570;-67
2021/01/02 06:39:27;;;;;;;2.27;1.77;;;21.60;51.80;;;;;;5096341;28;20179;-68
2021/01/02 06:41:55;;;;;;;2.10;1.90;;;21.60;52.40;;;;;;5096600;28;20200;-67
2021/01/02 06:44:44;;;;;;;3.20;2.07;;;21.60;51.80;;;;;;5096225;28;20415;-67
2021/01/02 06:47:17;;;;;;;2.20;2.00;;;21.60;51.80;;;;;;5096500;28;20790;-67
2021/01/02 06:49:43;;;;;;;2.40;2.20;;;21.60;51.80;;;;;;5096234;28;20419;-66
2021/01/02 06:52:10;;;;;;;3.57;2.20;;;21.60;51.80;;;;;;5096099;28;20422;-68
2021/01/02 06:54:39;;;;;;;2.47;1.90;;;21.50;51.80;;;;;;5096037;28;20444;-67
2021/01/02 06:57:05;;;;;;;4.10;2.50;;;21.50;51.80;;;;;;5095879;28;20782;-67
2021/01/02 06:59:31;;;;;;;2.60;1.97;;;21.60;51.90;;;;;;5096001;28;20842;-67
2021/01/02 07:01:57;;;;;;;2.50;2.20;;;21.60;51.80;;;;;;5095831;28;20416;-67
2021/01/02 07:04:38;;;;;;;2.43;2.23;;;21.60;51.80;;;;;;5095892;28;20249;-67
2021/01/02 07:07:05;;;;;;;2.63;2.43;;;21.60;51.80;;;;;;5095660;28;20965;-67
2021/01/02 07:09:32;;;;;;;2.70;2.20;;;21.60;51.80;;;;;;5095770;28;20910;-67
2021/01/02 07:12:08;;;;;;;3.20;2.20;;;21.50;52.40;;;;;;5095783;28;20415;-68
2021/01/02 07:14:34;;;;;;;2.73;2.07;;;21.60;51.80;;;;;;5095920;28;20846;-67
2021/01/02 07:17:10;;;;;;;2.57;1.90;;;21.60;51.90;;;;;;5095499;28;20542;-68
2021/01/02 07:19:41;;;;;;;3.30;1.90;;;21.60;51.90;;;;;;5095607;28;20396;-67
2021/01/02 07:22:27;;;;;;;2.33;2.00;;;21.60;51.80;;;;;;5095859;28;20780;-67
2021/01/02 07:25:00;;;;;;;2.33;2.00;;;21.60;51.80;;;;;;5095558;28;20753;-67
2021/01/02 07:27:32;;;;;;;2.87;2.40;;;21.60;51.90;;;;;;5095573;28;20502;-67
2021/01/02 07:30:20;;;;;;;2.27;2.07;;;21.60;51.90;;;;;;5095705;28;20389;-67
2021/01/02 07:32:46;;;;;;;2.23;1.87;;;21.60;51.80;;;;;;5096186;28;20396;-67
2021/01/02 07:35:14;;;;;;;2.00;1.80;;;21.50;51.80;;;;;;5095228;28;20985;-67
2021/01/02 07:37:41;;;;;;;2.40;2.10;;;21.60;51.90;;;;;;5095171;28;20246;-67
2021/01/02 07:40:11;;;;;;;2.17;1.70;;;21.60;51.90;;;;;;5095232;28;20502;-67
2021/01/02 07:42:54;;;;;;;2.37;2.03;;;21.60;51.80;;;;;;5094519;28;20456;-68
2021/01/02 07:45:22;;;;;;;2.17;1.80;;;21.60;51.80;;;;;;5095074;28;20408;-67
2021/01/02 07:47:50;;;;;;;2.30;2.10;;;21.60;51.80;;;;;;5094957;28;20423;-67
2021/01/02 07:50:18;;;;;;;2.07;1.73;;;21.60;51.80;;;;;;5095015;28;20400;-68
2021/01/02 07:52:47;;;;;;;3.03;1.90;;;21.60;51.80;;;;;;5095235;28;20403;-68
2021/01/02 07:55:14;;;;;;;2.20;2.00;;;21.60;51.80;;;;;;5094875;28;20442;-67
2021/01/02 07:57:39;;;;;;;2.10;1.83;;;21.60;51.80;;;;;;5094749;28;20466;-68
2021/01/02 08:00:10;;;;;;;2.07;1.70;;;21.60;51.80;;;;;;5094657;28;20408;-68
2021/01/02 08:02:40;;;;;;;2.13;1.70;;;21.60;51.70;;;;;;5093510;28;20217;-68
2021/01/02 08:05:17;;;;;;;2.33;2.13;;;21.60;51.70;;;;;;5094968;28;20404;-67
2021/01/02 08:07:54;;;;;;;2.17;1.97;;;21.60;51.70;;;;;;5107095;22;20487;-67
2021/01/02 08:10:20;;;;;;;2.10;1.90;;;21.60;51.70;;;;;;5094477;28;20439;-66
2021/01/02 08:12:48;;;;;;;2.87;2.10;;;21.50;51.60;;;;;;5094519;28;20918;-67
2021/01/02 08:15:18;;;;;;;3.00;2.30;;;21.60;51.70;;;;;;5094477;28;20473;-67
2021/01/02 08:17:44;;;;;;;2.50;2.20;;;21.50;51.60;;;;;;5094258;28;20447;-68
2021/01/02 08:20:10;;;;;;;2.87;2.30;;;21.50;51.60;;;;;;5094129;28;20495;-72
2021/01/02 08:22:38;;;;;;;2.27;1.70;;;21.60;51.70;;;;;;5094898;28;20746;-67
2021/01/02 08:25:15;;;;;;;2.20;1.77;;;21.60;51.70;;;;;;5094331;28;20436;-68
2021/01/02 08:27:41;;;;;;;4.77;1.87;;;21.60;51.70;;;;;;5100159;22;20486;-68
2021/01/02 08:30:09;;;;;;;2.27;1.80;;;21.60;51.70;;;;;;5093599;28;20500;-68
2021/01/02 08:32:56;;;;;;;2.37;2.00;;;21.50;51.70;;;;;;5092958;28;20644;-68
2021/01/02 08:35:33;;;;;;;3.10;2.50;;;21.60;51.70;;;;;;5093041;28;20788;-67
2021/01/02 08:38:04;;;;;;;2.30;2.00;;;21.60;51.80;;;;;;5094055;28;20451;-67
2021/01/02 08:40:36;;;;;;;1.87;1.57;;;21.60;51.80;;;;;;5094138;28;20820;-67
2021/01/02 08:43:01;;;;;;;3.13;2.40;;;21.60;51.80;;;;;;5094298;28;20384;-68
2021/01/02 08:45:39;;;;;;;2.13;1.80;;;21.60;52.00;;;;;;5094010;28;20902;-67
2021/01/02 08:48:06;;;;;;;2.40;1.97;;;21.60;51.70;;;;;;5093816;28;20232;-68
2021/01/02 08:50:33;;;;;;;3.00;2.37;;;21.60;51.70;;;;;;5093783;28;20435;-67
2021/01/02 08:52:58;;;;;;;2.33;2.10;;;21.60;51.70;;;;;;5093097;28;20499;-67
2021/01/02 08:55:28;;;;;;;2.60;1.90;;;21.60;51.70;;;;;;5092729;28;20643;-68
2021/01/02 08:57:54;;;;;;;2.13;1.80;;;21.70;51.70;;;;;;5093560;28;20680;-67
2021/01/02 09:00:30;;;;;;;2.70;2.50;;;21.60;51.70;;;;;;5093037;28;20431;-67
2021/01/02 09:02:56;;;;;;;2.13;1.93;;;21.70;51.70;;;;;;5093587;28;20431;-66
2021/01/02 09:05:31;;;;;;;2.90;2.30;;;21.70;51.70;;;;;;5093854;28;20399;-68
2021/01/02 09:08:00;;;;;;;2.37;2.03;;;21.70;51.70;;;;;;5093521;28;20427;-67
2021/01/02 09:10:38;;;;;;;3.37;2.03;;;21.70;51.70;;;;;;5093440;28;20403;-67
2021/01/02 09:13:07;;;;;;;2.20;1.90;;;21.70;51.60;;;;;;5093686;28;20489;-67
2021/01/02 09:15:42;;;;;;;3.13;2.20;;;21.70;51.60;;;;;;5093402;28;20403;-67
2021/01/02 09:18:08;;;;;;;1.77;1.67;;;21.70;51.60;;;;;;5093227;28;20537;-68
2021/01/02 09:20:34;;;;;;;2.10;1.67;;;21.80;51.70;;;;;;5093395;28;20439;-67
2021/01/02 09:22:59;;;;;;;2.23;1.90;;;21.70;51.60;;;;;;5093582;28;20257;-67
2021/01/02 09:25:29;;;;;;;2.70;1.70;;;21.70;51.60;;;;;;5093247;28;20218;-67
2021/01/02 09:27:56;;;;;;;3.63;2.10;;;21.80;51.60;;;;;;5093102;28;20214;-67
2021/01/02 09:30:22;;;;;;;2.10;1.70;;;21.70;51.60;;;;;;5093409;28;20446;-67
2021/01/02 09:32:48;;;;;;;3.30;1.90;;;21.80;51.70;;;;;;5093420;28;20403;-66
2021/01/02 09:35:14;;;;;;;1.97;1.73;;;21.70;51.60;;;;;;5093160;28;20404;-68
2021/01/02 09:37:42;;;;;;;2.73;1.90;;;21.80;51.60;;;;;;5093101;28;20193;-67
2021/01/02 09:40:10;;;;;;;2.80;2.00;;;21.80;51.60;;;;;;5093387;28;20182;-66
2021/01/02 09:42:35;;;;;;;2.73;2.10;;;21.70;51.50;;;;;;5093065;28;20863;-67
2021/01/02 09:45:01;;;;;;;2.07;1.90;;;21.70;51.60;;;;;;5092048;28;20423;-67
2021/01/02 09:47:27;;;;;;;1.83;1.67;;;21.70;51.50;;;;;;5093131;28;20211;-67
2021/01/02 09:49:52;;;;;;;2.40;2.00;;;21.70;51.60;;;;;;5093337;28;20196;-67
2021/01/02 09:52:18;;;;;;;2.23;1.93;;;21.70;51.50;;;;;;5093006;28;20166;-67
2021/01/02 09:54:43;;;;;;;2.77;2.30;;;21.70;51.60;;;;;;5092988;28;20265;-67
2021/01/02 09:57:09;;;;;;;2.97;2.20;;;21.70;51.60;;;;;;5091477;28;20201;-67
2021/01/02 09:59:35;;;;;;;2.10;1.90;;;21.70;51.60;;;;;;5093251;28;20166;-67
2021/01/02 10:02:00;;;;;;;3.10;2.30;;;21.70;51.60;;;;;;5093103;28;20742;-67
2021/01/02 10:04:26;;;;;;;2.50;2.27;;;21.70;51.60;;;;;;5094839;28;20162;-67
2021/01/02 10:06:51;;;;;;;3.50;2.47;;;21.70;51.60;;;;;;5096884;28;20186;-67
2021/01/02 10:09:17;;;;;;;2.80;2.40;;;21.70;51.60;;;;;;5097168;28;20648;-67
2021/01/02 10:11:43;;;;;;;2.90;2.00;;;21.70;51.60;;;;;;5096987;28;20528;-67
2021/01/02 10:14:09;;;;;;;3.50;2.30;;;21.70;51.60;;;;;;5097062;28;20212;-67
2021/01/02 10:16:35;;;;;;;3.30;2.30;;;21.70;51.60;;;;;;5095336;28;20463;-67
2021/01/02 10:19:00;;;;;;;2.93;2.63;;;21.70;51.60;;;;;;5096914;28;20158;-67
2021/01/02 10:21:26;;;;;;;3.10;2.20;;;21.70;51.60;;;;;;5096933;28;20223;-67
2021/01/02 10:23:51;;;;;;;4.70;2.93;;;21.70;52.20;;;;;;5096664;28;20166;-67
2021/01/02 10:26:22;;;;;;;4.60;2.70;;;21.70;51.60;;;;;;5096453;28;20223;-68
2021/01/02 10:28:48;;;;;;;4.27;2.80;;;21.70;51.60;;;;;;5096607;28;20245;-67
2021/01/02 10:31:20;;;;;;;3.13;2.50;;;21.70;51.60;;;;;;5096792;28;20435;-67
2021/01/02 10:33:46;;;;;;;4.07;2.80;;;21.70;51.50;;;;;;5095026;28;20211;-67
2021/01/02 10:36:12;;;;;;;3.10;2.60;;;21.70;51.40;;;;;;5095625;28;20917;-67
2021/01/02 10:38:37;;;;;;;4.20;2.70;;;21.70;51.40;;;;;;5095660;28;20198;-67
2021/01/02 10:41:03;;;;;;;4.03;2.50;;;21.70;51.40;;;;;;5095918;28;20248;-67
2021/01/02 10:43:29;;;;;;;5.20;2.80;;;21.70;51.40;;;;;;5095853;28;20173;-67
2021/01/02 10:45:54;;;;;;;6.53;3.60;;;21.70;51.40;;;;;;5095502;28;20416;-67
2021/01/02 10:48:20;;;;;;;4.50;3.13;;;21.70;51.40;;;;;;5095524;28;20201;-67
2021/01/02 10:50:46;;;;;;;3.20;2.60;;;21.60;51.30;;;;;;5096337;28;20636;-67
2021/01/02 10:53:12;;;;;;;5.43;2.63;;;21.60;51.40;;;;;;5096096;28;20166;-67
2021/01/02 10:55:38;;;;;;;4.60;3.33;;;21.60;51.40;;;;;;5096351;28;20921;-67
2021/01/02 10:58:04;;;;;;;5.63;2.97;;;21.70;51.40;;;;;;5095846;28;20482;-67
2021/01/02 11:00:30;;;;;;;6.73;3.87;;;21.70;51.40;;;;;;5096242;28;20508;-67
2021/01/02 11:02:55;;;;;;;5.20;3.00;;;21.70;51.40;;;;;;5096114;28;20161;-67
2021/01/02 11:05:21;;;;;;;4.00;3.10;;;21.60;51.30;;;;;;5096415;28;20392;-67
2021/01/02 11:07:46;;;;;;;4.87;3.37;;;21.60;51.30;;;;;;5095728;28;20272;-67
2021/01/02 11:10:12;;;;;;;4.23;3.30;;;21.60;51.30;;;;;;5096211;28;20531;-67
2021/01/02 11:12:38;;;;;;;5.60;3.60;;;21.60;51.40;;;;;;5095961;28;20178;-66
2021/01/02 11:15:07;;;;;;;4.80;4.07;;;21.60;51.40;;;;;;5095444;28;20430;-67
2021/01/02 11:17:33;;;;;;;4.80;3.70;;;21.60;51.90;;;;;;5094592;28;20563;-67
2021/01/02 11:19:59;;;;;;;10.17;4.93;;;21.60;51.40;;;;;;5095619;28;20407;-67
2021/01/02 11:22:24;;;;;;;5.63;3.60;;;21.60;51.40;;;;;;5095759;28;20248;-66
2021/01/02 11:24:50;;;;;;;11.37;4.37;;;21.70;51.40;;;;;;5095829;28;20154;-67
2021/01/02 11:27:18;;;;;;;5.57;3.70;;;21.70;51.40;;;;;;5095515;28;20684;-67
2021/01/02 11:29:45;;;;;;;5.53;4.03;;;21.70;51.40;;;;;;5095386;28;20205;-67
2021/01/02 11:32:12;;;;;;;5.50;4.63;;;21.70;51.50;;;;;;5094028;28;20929;-67
2021/01/02 11:34:38;;;;;;;8.17;4.03;;;21.70;51.50;;;;;;5095423;28;20403;-67
2021/01/02 11:37:06;;;;;;;9.90;5.20;;;21.70;51.50;;;;;;5095051;28;20453;-67
2021/01/02 11:39:32;;;;;;;9.10;4.47;;;21.70;51.50;;;;;;5095257;28;20404;-67
2021/01/02 11:42:03;;;;;;;6.93;4.27;;;21.70;51.50;;;;;;5095002;28;20396;-67
2021/01/02 11:44:28;;;;;;;7.07;4.20;;;21.70;51.40;;;;;;5095410;28;20461;-67
2021/01/02 11:46:56;;;;;;;8.33;4.43;;;21.70;51.40;;;;;;5095082;28;20431;-67
2021/01/02 11:49:26;;;;;;;10.63;4.40;;;21.80;51.50;;;;;;5095025;28;20177;-67
2021/01/02 11:51:54;;;;;;;7.03;4.70;;;21.80;51.50;;;;;;5095235;28;20419;-67
2021/01/02 11:54:20;;;;;;;8.67;4.60;;;21.80;51.50;;;;;;5095201;28;20420;-68
2021/01/02 11:56:47;;;;;;;7.63;4.30;;;21.80;51.50;;;;;;5095014;28;20785;-67
2021/01/02 11:59:14;;;;;;;10.77;4.43;;;21.80;51.50;;;;;;5094900;28;20877;-67
2021/01/02 12:01:49;;;;;;;9.67;4.90;;;21.80;51.50;;;;;;5095081;28;20886;-67
2021/01/02 12:04:18;;;;;;;5.83;4.00;;;21.80;51.50;;;;;;5094839;28;20429;-67
2021/01/02 12:06:43;;;;;;;7.97;4.20;;;21.80;51.50;;;;;;5094620;28;20431;-68
2021/01/02 12:09:14;;;;;;;7.30;4.60;;;21.80;51.50;;;;;;5094647;28;20407;-67
2021/01/02 12:11:42;;;;;;;7.70;4.60;;;21.80;51.50;;;;;;5094639;28;20159;-67
2021/01/02 12:14:10;;;;;;;6.17;3.77;;;21.80;51.50;;;;;;5094625;28;20408;-67
2021/01/02 12:16:38;;;;;;;5.83;4.10;;;21.80;51.50;;;;;;5094478;28;20790;-66
2021/01/02 12:19:06;;;;;;;8.50;4.93;;;21.80;51.50;;;;;;5094430;28;20404;-67
2021/01/02 12:21:31;;;;;;;6.73;4.53;;;21.80;51.50;;;;;;5094442;28;20408;-67
2021/01/02 12:23:57;;;;;;;5.17;3.50;;;21.80;51.50;;;;;;5094601;28;20461;-66
2021/01/02 12:26:23;;;;;;;8.10;5.03;;;21.80;51.50;;;;;;5094370;28;20424;-67
2021/01/02 12:28:50;;;;;;;8.70;4.47;;;21.80;51.50;;;;;;5094170;28;20161;-67
2021/01/02 12:31:24;;;;;;;7.37;4.43;;;21.80;51.50;;;;;;5094211;28;20609;-67
2021/01/02 12:33:50;;;;;;;5.53;3.63;;;21.80;51.50;;;;;;5094123;28;20498;-67
2021/01/02 12:36:18;;;;;;;8.10;4.23;;;21.80;51.60;;;;;;5094349;28;20485;-67
2021/01/02 12:38:44;;;;;;;7.83;4.87;;;21.80;51.60;;;;;;5094219;28;20888;-67
2021/01/02 12:41:15;;;;;;;7.60;4.13;;;21.80;51.50;;;;;;5094563;28;20459;-67
2021/01/02 12:43:42;;;;;;;6.87;4.50;;;21.80;51.50;;;;;;5094407;28;20606;-67
2021/01/02 12:46:08;;;;;;;5.90;4.83;;;21.80;51.60;;;;;;5094493;28;20437;-67
2021/01/02 12:48:34;;;;;;;5.87;4.40;;;21.80;51.50;;;;;;5094089;28;20518;-67
2021/01/02 12:51:00;;;;;;;8.07;4.50;;;21.80;51.60;;;;;;5094027;28;20439;-67
2021/01/02 12:53:25;;;;;;;6.20;4.43;;;21.80;51.50;;;;;;5094269;28;20181;-67
2021/01/02 12:55:51;;;;;;;8.53;5.40;;;21.80;52.10;;;;;;5094081;28;20241;-67
2021/01/02 12:58:17;;;;;;;10.03;4.23;;;21.80;51.50;;;;;;5093672;28;20205;-67